sensor_id;sensor_type;location;lat;lon;timestamp;temperature;humidity
65864;SHT30;52639;51.180;20.460;2023-02-28T00:03:55;-7.08;86.59
65864;SHT30;52639;51.180;20.460;2023-02-28T00:07:59;-7.23;85.71
65864;SHT30;52639;51.180;20.460;2023-02-28T00:12:03;-7.24;86.05
65864;SHT30;52639;51.180;20.460;2023-02-28T00:16:12;-7.29;85.69
65864;SHT30;52639;51.180;20.460;2023-02-28T00:20:16;-7.27;85.60
65864;SHT30;52639;51.180;20.460;2023-02-28T00:24:21;-7.34;85.82
65864;SHT30;52639;51.180;20.460;2023-02-28T00:28:24;-7.27;86.06
65864;SHT30;52639;51.180;20.460;2023-02-28T00:32:27;-7.29;85.60
65864;SHT30;52639;51.180;20.460;2023-02-28T00:36:30;-7.40;85.46
65864;SHT30;52639;51.180;20.460;2023-02-28T00:40:35;-7.42;86.10
65864;SHT30;52639;51.180;20.460;2023-02-28T00:44:38;-7.53;85.85
65864;SHT30;52639;51.180;20.460;2023-02-28T00:48:40;-7.32;86.10
65864;SHT30;52639;51.180;20.460;2023-02-28T00:52:43;-7.18;85.99
65864;SHT30;52639;51.180;20.460;2023-02-28T00:56:48;-7.27;85.72
65864;SHT30;52639;51.180;20.460;2023-02-28T01:00:51;-7.13;85.83
65864;SHT30;52639;51.180;20.460;2023-02-28T01:04:55;-7.05;85.82
65864;SHT30;52639;51.180;20.460;2023-02-28T01:08:58;-6.93;85.83
65864;SHT30;52639;51.180;20.460;2023-02-28T01:13:02;-6.89;85.70
65864;SHT30;52639;51.180;20.460;2023-02-28T01:17:05;-6.92;85.54
65864;SHT30;52639;51.180;20.460;2023-02-28T01:21:11;-6.95;85.38
65864;SHT30;52639;51.180;20.460;2023-02-28T01:25:14;-7.09;85.55
65864;SHT30;52639;51.180;20.460;2023-02-28T01:29:19;-7.09;86.03
65864;SHT30;52639;51.180;20.460;2023-02-28T01:33:21;-7.26;85.72
65864;SHT30;52639;51.180;20.460;2023-02-28T01:37:25;-7.27;86.18
65864;SHT30;52639;51.180;20.460;2023-02-28T01:41:30;-7.29;86.32
65864;SHT30;52639;51.180;20.460;2023-02-28T01:45:35;-7.22;86.54
65864;SHT30;52639;51.180;20.460;2023-02-28T01:49:39;-7.30;85.87
65864;SHT30;52639;51.180;20.460;2023-02-28T01:53:45;-7.30;85.98
65864;SHT30;52639;51.180;20.460;2023-02-28T01:57:52;-7.19;87.06
65864;SHT30;52639;51.180;20.460;2023-02-28T02:01:59;-7.11;87.19
65864;SHT30;52639;51.180;20.460;2023-02-28T02:06:02;-7.19;86.53
65864;SHT30;52639;51.180;20.460;2023-02-28T02:10:11;-7.19;86.29
65864;SHT30;52639;51.180;20.460;2023-02-28T02:18:48;-7.16;86.15
65864;SHT30;52639;51.180;20.460;2023-02-28T02:23:16;-6.99;86.18
65864;SHT30;52639;51.180;20.460;2023-02-28T02:27:49;-7.03;86.36
65864;SHT30;52639;51.180;20.460;2023-02-28T02:32:40;-7.05;85.78
65864;SHT30;52639;51.180;20.460;2023-02-28T02:36:50;-7.11;86.00
65864;SHT30;52639;51.180;20.460;2023-02-28T02:40:58;-7.03;86.31
65864;SHT30;52639;51.180;20.460;2023-02-28T02:45:07;-7.11;85.81
65864;SHT30;52639;51.180;20.460;2023-02-28T02:49:15;-7.18;86.03
65864;SHT30;52639;51.180;20.460;2023-02-28T02:53:27;-7.23;86.19
65864;SHT30;52639;51.180;20.460;2023-02-28T02:57:35;-7.33;87.10
65864;SHT30;52639;51.180;20.460;2023-02-28T03:01:40;-7.40;86.89
65864;SHT30;52639;51.180;20.460;2023-02-28T03:05:46;-7.50;86.74
65864;SHT30;52639;51.180;20.460;2023-02-28T03:09:54;-7.47;86.65
65864;SHT30;52639;51.180;20.460;2023-02-28T03:14:13;-7.56;85.92
65864;SHT30;52639;51.180;20.460;2023-02-28T03:18:24;-7.71;86.40
65864;SHT30;52639;51.180;20.460;2023-02-28T03:22:41;-7.70;86.69
65864;SHT30;52639;51.180;20.460;2023-02-28T03:26:52;-7.67;87.14
65864;SHT30;52639;51.180;20.460;2023-02-28T03:30:59;-7.80;87.30
65864;SHT30;52639;51.180;20.460;2023-02-28T03:35:09;-7.86;86.97
65864;SHT30;52639;51.180;20.460;2023-02-28T03:39:16;-7.97;87.00
65864;SHT30;52639;51.180;20.460;2023-02-28T03:43:24;-7.98;87.15
65864;SHT30;52639;51.180;20.460;2023-02-28T03:47:31;-8.04;86.69
65864;SHT30;52639;51.180;20.460;2023-02-28T03:51:36;-8.14;86.77
65864;SHT30;52639;51.180;20.460;2023-02-28T03:55:43;-8.17;87.46
65864;SHT30;52639;51.180;20.460;2023-02-28T03:59:53;-8.14;88.00
65864;SHT30;52639;51.180;20.460;2023-02-28T04:03:58;-8.11;87.76
65864;SHT30;52639;51.180;20.460;2023-02-28T04:08:05;-8.15;87.66
65864;SHT30;52639;51.180;20.460;2023-02-28T04:12:08;-8.22;87.69
65864;SHT30;52639;51.180;20.460;2023-02-28T04:16:13;-8.39;87.36
65864;SHT30;52639;51.180;20.460;2023-02-28T04:20:16;-8.29;87.66
65864;SHT30;52639;51.180;20.460;2023-02-28T04:24:20;-8.32;87.30
65864;SHT30;52639;51.180;20.460;2023-02-28T04:28:23;-8.32;87.26
65864;SHT30;52639;51.180;20.460;2023-02-28T04:32:27;-8.42;87.14
65864;SHT30;52639;51.180;20.460;2023-02-28T04:36:30;-8.38;87.34
65864;SHT30;52639;51.180;20.460;2023-02-28T04:40:32;-8.28;88.09
65864;SHT30;52639;51.180;20.460;2023-02-28T04:44:35;-8.17;87.30
65864;SHT30;52639;51.180;20.460;2023-02-28T04:48:40;-8.14;87.15
65864;SHT30;52639;51.180;20.460;2023-02-28T04:52:45;-8.14;87.12
65864;SHT30;52639;51.180;20.460;2023-02-28T04:56:47;-8.02;88.87
65864;SHT30;52639;51.180;20.460;2023-02-28T05:00:51;-7.93;87.97
65864;SHT30;52639;51.180;20.460;2023-02-28T05:04:55;-7.84;88.96
65864;SHT30;52639;51.180;20.460;2023-02-28T05:08:59;-7.77;88.42
65864;SHT30;52639;51.180;20.460;2023-02-28T05:13:02;-7.66;88.57
65864;SHT30;52639;51.180;20.460;2023-02-28T05:17:05;-7.58;89.04
65864;SHT30;52639;51.180;20.460;2023-02-28T05:21:24;-7.51;87.93
65864;SHT30;52639;51.180;20.460;2023-02-28T05:25:27;-7.47;88.12
65864;SHT30;52639;51.180;20.460;2023-02-28T05:29:30;-7.40;87.51
65864;SHT30;52639;51.180;20.460;2023-02-28T05:33:32;-7.33;87.26
65864;SHT30;52639;51.180;20.460;2023-02-28T05:37:38;-7.23;87.02
65864;SHT30;52639;51.180;20.460;2023-02-28T05:41:41;-7.13;87.13
65864;SHT30;52639;51.180;20.460;2023-02-28T05:45:44;-6.99;86.58
65864;SHT30;52639;51.180;20.460;2023-02-28T05:49:47;-6.82;86.44
65864;SHT30;52639;51.180;20.460;2023-02-28T05:53:51;-6.60;86.01
65864;SHT30;52639;51.180;20.460;2023-02-28T05:57:54;-6.41;85.98
65864;SHT30;52639;51.180;20.460;2023-02-28T06:01:57;-6.23;86.05
65864;SHT30;52639;51.180;20.460;2023-02-28T06:06:00;-6.02;85.16
65864;SHT30;52639;51.180;20.460;2023-02-28T06:10:05;-5.76;84.59
65864;SHT30;52639;51.180;20.460;2023-02-28T06:14:14;-5.56;84.31
65864;SHT30;52639;51.180;20.460;2023-02-28T06:18:17;-5.24;84.83
65864;SHT30;52639;51.180;20.460;2023-02-28T06:22:19;-4.64;83.88
65864;SHT30;52639;51.180;20.460;2023-02-28T06:26:24;-2.86;82.03
65864;SHT30;52639;51.180;20.460;2023-02-28T06:30:27;-1.67;79.37
65864;SHT30;52639;51.180;20.460;2023-02-28T06:34:32;-0.13;77.66
65864;SHT30;52639;51.180;20.460;2023-02-28T06:38:36;0.79;76.33
65864;SHT30;52639;51.180;20.460;2023-02-28T06:42:41;1.15;76.42
65864;SHT30;52639;51.180;20.460;2023-02-28T06:46:45;1.94;77.57
65864;SHT30;52639;51.180;20.460;2023-02-28T06:50:48;2.82;76.07
65864;SHT30;52639;51.180;20.460;2023-02-28T06:54:51;3.38;73.17
65864;SHT30;52639;51.180;20.460;2023-02-28T06:59:02;4.29;73.06
65864;SHT30;52639;51.180;20.460;2023-02-28T07:03:07;4.22;74.15
65864;SHT30;52639;51.180;20.460;2023-02-28T07:07:10;4.59;74.67
65864;SHT30;52639;51.180;20.460;2023-02-28T07:11:13;4.83;78.80
65864;SHT30;52639;51.180;20.460;2023-02-28T07:15:17;5.01;78.32
65864;SHT30;52639;51.180;20.460;2023-02-28T07:19:20;4.29;77.33
65864;SHT30;52639;51.180;20.460;2023-02-28T07:23:23;4.57;77.38
65864;SHT30;52639;51.180;20.460;2023-02-28T07:27:26;4.91;73.76
65864;SHT30;52639;51.180;20.460;2023-02-28T07:31:31;5.30;70.73
65864;SHT30;52639;51.180;20.460;2023-02-28T07:35:34;6.22;68.29
65864;SHT30;52639;51.180;20.460;2023-02-28T07:39:37;7.41;66.71
65864;SHT30;52639;51.180;20.460;2023-02-28T07:43:40;9.40;68.23
65864;SHT30;52639;51.180;20.460;2023-02-28T07:47:44;10.64;64.81
65864;SHT30;52639;51.180;20.460;2023-02-28T07:51:48;11.05;66.84
65864;SHT30;52639;51.180;20.460;2023-02-28T07:55:51;10.73;61.19
65864;SHT30;52639;51.180;20.460;2023-02-28T07:59:56;11.70;57.34
65864;SHT30;52639;51.180;20.460;2023-02-28T08:04:00;11.30;59.71
65864;SHT30;52639;51.180;20.460;2023-02-28T08:08:03;10.88;60.29
65864;SHT30;52639;51.180;20.460;2023-02-28T08:12:06;13.06;59.05
65864;SHT30;52639;51.180;20.460;2023-02-28T08:16:10;14.04;59.12
65864;SHT30;52639;51.180;20.460;2023-02-28T08:20:18;13.97;56.41
65864;SHT30;52639;51.180;20.460;2023-02-28T08:24:21;13.77;54.18
65864;SHT30;52639;51.180;20.460;2023-02-28T08:28:36;13.56;55.07
65864;SHT30;52639;51.180;20.460;2023-02-28T08:32:39;14.85;52.56
65864;SHT30;52639;51.180;20.460;2023-02-28T08:36:46;15.17;54.37
65864;SHT30;52639;51.180;20.460;2023-02-28T08:40:57;14.96;53.58
65864;SHT30;52639;51.180;20.460;2023-02-28T08:45:01;15.70;48.83
65864;SHT30;52639;51.180;20.460;2023-02-28T08:49:05;15.11;51.13
65864;SHT30;52639;51.180;20.460;2023-02-28T08:53:10;15.17;48.86
65864;SHT30;52639;51.180;20.460;2023-02-28T08:57:15;13.16;50.15
65864;SHT30;52639;51.180;20.460;2023-02-28T09:01:20;13.75;48.72
65864;SHT30;52639;51.180;20.460;2023-02-28T09:05:33;14.12;48.27
65864;SHT30;52639;51.180;20.460;2023-02-28T09:09:46;13.79;50.37
65864;SHT30;52639;51.180;20.460;2023-02-28T09:13:59;14.21;47.60
65864;SHT30;52639;51.180;20.460;2023-02-28T09:18:05;14.92;45.50
65864;SHT30;52639;51.180;20.460;2023-02-28T09:22:19;15.43;46.86
65864;SHT30;52639;51.180;20.460;2023-02-28T09:26:28;15.78;46.12
65864;SHT30;52639;51.180;20.460;2023-02-28T09:30:37;15.87;45.88
65864;SHT30;52639;51.180;20.460;2023-02-28T09:49:19;11.94;37.06
65864;SHT30;52639;51.180;20.460;2023-02-28T09:53:26;14.19;35.88
65864;SHT30;52639;51.180;20.460;2023-02-28T09:57:37;13.63;38.73
65864;SHT30;52639;51.180;20.460;2023-02-28T10:01:45;13.77;39.88
65864;SHT30;52639;51.180;20.460;2023-02-28T10:05:57;13.36;40.22
65864;SHT30;52639;51.180;20.460;2023-02-28T10:10:04;13.51;41.13
65864;SHT30;52639;51.180;20.460;2023-02-28T10:14:13;12.58;42.99
65864;SHT30;52639;51.180;20.460;2023-02-28T10:18:22;13.82;41.40
65864;SHT30;52639;51.180;20.460;2023-02-28T10:22:33;12.49;43.15
65864;SHT30;52639;51.180;20.460;2023-02-28T10:26:36;13.02;41.94
65864;SHT30;52639;51.180;20.460;2023-02-28T10:30:41;7.02;50.88
65864;SHT30;52639;51.180;20.460;2023-02-28T10:34:45;4.50;52.75
65864;SHT30;52639;51.180;20.460;2023-02-28T10:38:55;4.06;53.73
65864;SHT30;52639;51.180;20.460;2023-02-28T10:42:59;3.89;53.47
65864;SHT30;52639;51.180;20.460;2023-02-28T10:47:03;4.43;52.99
65864;SHT30;52639;51.180;20.460;2023-02-28T10:51:08;4.13;52.70
65864;SHT30;52639;51.180;20.460;2023-02-28T10:55:22;3.33;53.44
65864;SHT30;52639;51.180;20.460;2023-02-28T10:59:29;3.35;52.91
65864;SHT30;52639;51.180;20.460;2023-02-28T11:03:33;3.23;50.18
65864;SHT30;52639;51.180;20.460;2023-02-28T11:07:38;3.24;50.78
65864;SHT30;52639;51.180;20.460;2023-02-28T11:11:46;3.34;51.81
65864;SHT30;52639;51.180;20.460;2023-02-28T11:15:52;3.48;51.60
65864;SHT30;52639;51.180;20.460;2023-02-28T11:19:58;3.31;52.36
65864;SHT30;52639;51.180;20.460;2023-02-28T11:24:06;3.37;53.09
65864;SHT30;52639;51.180;20.460;2023-02-28T11:28:28;3.67;54.16
65864;SHT30;52639;51.180;20.460;2023-02-28T11:32:32;3.63;53.14
65864;SHT30;52639;51.180;20.460;2023-02-28T11:36:35;3.57;53.66
65864;SHT30;52639;51.180;20.460;2023-02-28T11:40:50;3.65;53.08
65864;SHT30;52639;51.180;20.460;2023-02-28T11:45:08;3.35;54.07
65864;SHT30;52639;51.180;20.460;2023-02-28T11:49:32;3.75;54.31
65864;SHT30;52639;51.180;20.460;2023-02-28T11:58:26;3.27;54.33
65864;SHT30;52639;51.180;20.460;2023-02-28T12:02:35;3.28;54.42
65864;SHT30;52639;51.180;20.460;2023-02-28T12:06:50;3.33;54.08
65864;SHT30;52639;51.180;20.460;2023-02-28T12:11:06;3.17;55.27
65864;SHT30;52639;51.180;20.460;2023-02-28T12:15:28;3.11;54.14
65864;SHT30;52639;51.180;20.460;2023-02-28T12:19:40;3.35;55.12
65864;SHT30;52639;51.180;20.460;2023-02-28T12:23:57;3.51;55.15
65864;SHT30;52639;51.180;20.460;2023-02-28T12:28:04;3.54;53.58
65864;SHT30;52639;51.180;20.460;2023-02-28T12:32:12;3.54;54.78
65864;SHT30;52639;51.180;20.460;2023-02-28T12:36:19;3.68;54.90
65864;SHT30;52639;51.180;20.460;2023-02-28T12:40:41;3.30;55.55
65864;SHT30;52639;51.180;20.460;2023-02-28T12:44:46;3.31;52.63
65864;SHT30;52639;51.180;20.460;2023-02-28T12:48:59;3.30;53.33
65864;SHT30;52639;51.180;20.460;2023-02-28T12:53:08;3.41;54.47
65864;SHT30;52639;51.180;20.460;2023-02-28T12:57:16;3.50;54.38
65864;SHT30;52639;51.180;20.460;2023-02-28T13:01:42;3.50;54.36
65864;SHT30;52639;51.180;20.460;2023-02-28T13:06:08;3.43;54.80
65864;SHT30;52639;51.180;20.460;2023-02-28T13:10:15;3.34;54.40
65864;SHT30;52639;51.180;20.460;2023-02-28T13:14:26;3.19;54.52
65864;SHT30;52639;51.180;20.460;2023-02-28T13:18:35;3.07;53.99
65864;SHT30;52639;51.180;20.460;2023-02-28T13:22:42;3.01;54.58
65864;SHT30;52639;51.180;20.460;2023-02-28T13:27:20;2.99;56.28
65864;SHT30;52639;51.180;20.460;2023-02-28T13:31:26;2.99;55.89
65864;SHT30;52639;51.180;20.460;2023-02-28T13:35:44;2.99;56.33
65864;SHT30;52639;51.180;20.460;2023-02-28T13:39:51;3.03;55.20
65864;SHT30;52639;51.180;20.460;2023-02-28T13:44:07;2.93;55.93
65864;SHT30;52639;51.180;20.460;2023-02-28T13:48:19;2.99;55.89
65864;SHT30;52639;51.180;20.460;2023-02-28T13:52:23;3.11;53.45
65864;SHT30;52639;51.180;20.460;2023-02-28T13:56:40;2.97;55.38
65864;SHT30;52639;51.180;20.460;2023-02-28T14:01:05;2.85;55.72
65864;SHT30;52639;51.180;20.460;2023-02-28T14:05:14;2.85;55.36
65864;SHT30;52639;51.180;20.460;2023-02-28T14:09:24;2.76;56.37
65864;SHT30;52639;51.180;20.460;2023-02-28T14:13:42;2.73;57.01
65864;SHT30;52639;51.180;20.460;2023-02-28T14:17:54;2.69;56.99
65864;SHT30;52639;51.180;20.460;2023-02-28T14:22:12;2.69;56.16
65864;SHT30;52639;51.180;20.460;2023-02-28T14:26:47;2.50;57.71
65864;SHT30;52639;51.180;20.460;2023-02-28T14:31:06;2.39;58.14
65864;SHT30;52639;51.180;20.460;2023-02-28T14:35:36;2.36;58.48
65864;SHT30;52639;51.180;20.460;2023-02-28T14:39:48;2.35;57.20
65864;SHT30;52639;51.180;20.460;2023-02-28T14:43:55;2.21;58.23
65864;SHT30;52639;51.180;20.460;2023-02-28T14:47:59;2.29;57.37
65864;SHT30;52639;51.180;20.460;2023-02-28T14:52:17;2.26;57.93
65864;SHT30;52639;51.180;20.460;2023-02-28T14:56:27;2.14;57.70
65864;SHT30;52639;51.180;20.460;2023-02-28T15:00:33;1.93;59.62
65864;SHT30;52639;51.180;20.460;2023-02-28T15:04:52;1.98;58.89
65864;SHT30;52639;51.180;20.460;2023-02-28T15:09:20;1.77;59.32
65864;SHT30;52639;51.180;20.460;2023-02-28T15:13:31;1.40;61.04
65864;SHT30;52639;51.180;20.460;2023-02-28T15:17:37;1.60;59.62
65864;SHT30;52639;51.180;20.460;2023-02-28T15:21:44;1.60;59.66
65864;SHT30;52639;51.180;20.460;2023-02-28T15:25:51;1.63;58.94
65864;SHT30;52639;51.180;20.460;2023-02-28T15:29:59;1.61;58.85
65864;SHT30;52639;51.180;20.460;2023-02-28T15:34:05;1.27;60.17
65864;SHT30;52639;51.180;20.460;2023-02-28T15:38:18;0.99;60.95
65864;SHT30;52639;51.180;20.460;2023-02-28T15:42:28;0.61;61.95
65864;SHT30;52639;51.180;20.460;2023-02-28T15:46:34;0.64;62.61
65864;SHT30;52639;51.180;20.460;2023-02-28T15:50:38;0.73;60.99
65864;SHT30;52639;51.180;20.460;2023-02-28T15:54:44;0.61;61.05
65864;SHT30;52639;51.180;20.460;2023-02-28T15:58:52;0.44;61.74
65864;SHT30;52639;51.180;20.460;2023-02-28T16:02:56;0.27;61.76
65864;SHT30;52639;51.180;20.460;2023-02-28T16:07:15;-0.41;63.05
65864;SHT30;52639;51.180;20.460;2023-02-28T16:11:19;-0.67;63.12
65864;SHT30;52639;51.180;20.460;2023-02-28T16:15:26;-1.32;64.58
65864;SHT30;52639;51.180;20.460;2023-02-28T16:19:30;-1.73;65.93
65864;SHT30;52639;51.180;20.460;2023-02-28T16:23:33;-2.18;67.17
65864;SHT30;52639;51.180;20.460;2023-02-28T16:27:37;-2.58;67.68
65864;SHT30;52639;51.180;20.460;2023-02-28T16:31:42;-2.68;68.21
65864;SHT30;52639;51.180;20.460;2023-02-28T16:35:45;-2.89;68.29
65864;SHT30;52639;51.180;20.460;2023-02-28T16:39:50;-3.20;68.45
65864;SHT30;52639;51.180;20.460;2023-02-28T16:43:55;-3.33;69.04
65864;SHT30;52639;51.180;20.460;2023-02-28T16:48:10;-3.40;69.13
65864;SHT30;52639;51.180;20.460;2023-02-28T16:52:43;-3.67;69.67
65864;SHT30;52639;51.180;20.460;2023-02-28T16:56:48;-3.74;69.75
65864;SHT30;52639;51.180;20.460;2023-02-28T17:00:52;-3.88;69.97
65864;SHT30;52639;51.180;20.460;2023-02-28T17:04:58;-4.15;69.66
65864;SHT30;52639;51.180;20.460;2023-02-28T17:09:03;-3.86;70.80
65864;SHT30;52639;51.180;20.460;2023-02-28T17:13:11;-4.02;69.85
65864;SHT30;52639;51.180;20.460;2023-02-28T17:17:21;-4.10;70.35
65864;SHT30;52639;51.180;20.460;2023-02-28T17:21:33;-4.05;70.16
65864;SHT30;52639;51.180;20.460;2023-02-28T17:25:43;-4.29;70.53
65864;SHT30;52639;51.180;20.460;2023-02-28T17:29:58;-4.12;71.75
65864;SHT30;52639;51.180;20.460;2023-02-28T17:34:05;-4.10;70.79
65864;SHT30;52639;51.180;20.460;2023-02-28T17:38:22;-4.20;70.56
65864;SHT30;52639;51.180;20.460;2023-02-28T17:42:27;-4.23;70.87
65864;SHT30;52639;51.180;20.460;2023-02-28T17:46:32;-4.39;70.54
65864;SHT30;52639;51.180;20.460;2023-02-28T17:50:46;-4.60;70.47
65864;SHT30;52639;51.180;20.460;2023-02-28T17:54:54;-4.64;71.43
65864;SHT30;52639;51.180;20.460;2023-02-28T17:58:58;-4.66;71.67
65864;SHT30;52639;51.180;20.460;2023-02-28T18:03:02;-4.71;72.18
65864;SHT30;52639;51.180;20.460;2023-02-28T18:07:10;-4.80;72.46
65864;SHT30;52639;51.180;20.460;2023-02-28T18:11:17;-4.83;72.75
65864;SHT30;52639;51.180;20.460;2023-02-28T18:15:22;-4.98;72.48
65864;SHT30;52639;51.180;20.460;2023-02-28T18:19:26;-5.08;72.95
65864;SHT30;52639;51.180;20.460;2023-02-28T18:23:30;-4.98;73.05
65864;SHT30;52639;51.180;20.460;2023-02-28T18:27:37;-4.90;72.95
65864;SHT30;52639;51.180;20.460;2023-02-28T18:31:42;-4.83;73.44
65864;SHT30;52639;51.180;20.460;2023-02-28T18:35:54;-4.95;72.82
65864;SHT30;52639;51.180;20.460;2023-02-28T18:39:58;-5.04;73.38
65864;SHT30;52639;51.180;20.460;2023-02-28T18:44:05;-5.22;73.56
65864;SHT30;52639;51.180;20.460;2023-02-28T18:48:11;-5.34;74.48
65864;SHT30;52639;51.180;20.460;2023-02-28T18:52:15;-5.45;74.34
65864;SHT30;52639;51.180;20.460;2023-02-28T18:56:22;-5.45;74.53
65864;SHT30;52639;51.180;20.460;2023-02-28T19:00:29;-5.60;74.55
65864;SHT30;52639;51.180;20.460;2023-02-28T19:04:34;-5.72;74.71
65864;SHT30;52639;51.180;20.460;2023-02-28T19:08:39;-5.59;74.77
65864;SHT30;52639;51.180;20.460;2023-02-28T19:12:44;-5.60;74.54
65864;SHT30;52639;51.180;20.460;2023-02-28T19:16:52;-5.73;74.60
65864;SHT30;52639;51.180;20.460;2023-02-28T19:21:08;-5.92;75.03
65864;SHT30;52639;51.180;20.460;2023-02-28T19:25:12;-6.04;75.09
65864;SHT30;52639;51.180;20.460;2023-02-28T19:29:19;-6.02;76.91
65864;SHT30;52639;51.180;20.460;2023-02-28T19:33:31;-6.04;75.64
65864;SHT30;52639;51.180;20.460;2023-02-28T19:37:49;-6.10;76.53
65864;SHT30;52639;51.180;20.460;2023-02-28T19:41:54;-6.20;76.75
65864;SHT30;52639;51.180;20.460;2023-02-28T19:46:06;-6.27;75.89
65864;SHT30;52639;51.180;20.460;2023-02-28T19:50:59;-6.06;75.28
65864;SHT30;52639;51.180;20.460;2023-02-28T19:55:09;-6.25;76.71
65864;SHT30;52639;51.180;20.460;2023-02-28T19:59:16;-6.35;76.59
65864;SHT30;52639;51.180;20.460;2023-02-28T20:03:26;-6.33;76.71
65864;SHT30;52639;51.180;20.460;2023-02-28T20:07:37;-6.38;77.78
65864;SHT30;52639;51.180;20.460;2023-02-28T20:11:43;-6.45;77.85
65864;SHT30;52639;51.180;20.460;2023-02-28T20:15:49;-6.55;77.82
65864;SHT30;52639;51.180;20.460;2023-02-28T20:19:55;-6.64;77.57
65864;SHT30;52639;51.180;20.460;2023-02-28T20:24:06;-6.72;76.98
65864;SHT30;52639;51.180;20.460;2023-02-28T20:28:27;-6.74;77.08
65864;SHT30;52639;51.180;20.460;2023-02-28T20:32:38;-6.71;78.61
65864;SHT30;52639;51.180;20.460;2023-02-28T20:36:44;-6.78;79.04
65864;SHT30;52639;51.180;20.460;2023-02-28T20:41:01;-6.78;80.32
65864;SHT30;52639;51.180;20.460;2023-02-28T20:45:10;-6.85;79.07
65864;SHT30;52639;51.180;20.460;2023-02-28T20:49:16;-6.92;78.44
65864;SHT30;52639;51.180;20.460;2023-02-28T20:53:21;-6.87;79.32
65864;SHT30;52639;51.180;20.460;2023-02-28T20:57:29;-6.92;77.71
65864;SHT30;52639;51.180;20.460;2023-02-28T21:01:35;-7.01;77.85
65864;SHT30;52639;51.180;20.460;2023-02-28T21:05:44;-7.09;78.06
65864;SHT30;52639;51.180;20.460;2023-02-28T21:09:49;-6.96;79.06
65864;SHT30;52639;51.180;20.460;2023-02-28T21:13:59;-6.84;78.27
65864;SHT30;52639;51.180;20.460;2023-02-28T21:18:02;-6.74;78.39
65864;SHT30;52639;51.180;20.460;2023-02-28T21:22:06;-7.01;78.46
65864;SHT30;52639;51.180;20.460;2023-02-28T21:26:11;-7.20;78.57
65864;SHT30;52639;51.180;20.460;2023-02-28T21:30:16;-7.30;78.31
65864;SHT30;52639;51.180;20.460;2023-02-28T21:34:19;-7.06;79.74
65864;SHT30;52639;51.180;20.460;2023-02-28T21:38:22;-6.77;79.84
65864;SHT30;52639;51.180;20.460;2023-02-28T21:42:27;-6.72;79.11
65864;SHT30;52639;51.180;20.460;2023-02-28T21:46:32;-6.84;78.87
65864;SHT30;52639;51.180;20.460;2023-02-28T21:50:35;-6.88;78.77
65864;SHT30;52639;51.180;20.460;2023-02-28T21:54:38;-6.96;79.28
65864;SHT30;52639;51.180;20.460;2023-02-28T21:58:40;-6.92;80.94
65864;SHT30;52639;51.180;20.460;2023-02-28T22:02:45;-6.95;79.93
65864;SHT30;52639;51.180;20.460;2023-02-28T22:06:49;-7.18;80.15
65864;SHT30;52639;51.180;20.460;2023-02-28T22:10:52;-7.34;79.95
65864;SHT30;52639;51.180;20.460;2023-02-28T22:14:56;-7.29;80.57
65864;SHT30;52639;51.180;20.460;2023-02-28T22:19:00;-7.39;79.09
65864;SHT30;52639;51.180;20.460;2023-02-28T22:23:06;-7.46;80.85
65864;SHT30;52639;51.180;20.460;2023-02-28T22:27:09;-7.60;79.93
65864;SHT30;52639;51.180;20.460;2023-02-28T22:31:14;-7.67;80.45
65864;SHT30;52639;51.180;20.460;2023-02-28T22:35:19;-7.57;80.17
65864;SHT30;52639;51.180;20.460;2023-02-28T22:39:21;-7.71;79.77
65864;SHT30;52639;51.180;20.460;2023-02-28T22:43:24;-7.80;80.45
65864;SHT30;52639;51.180;20.460;2023-02-28T22:47:28;-7.81;80.61
65864;SHT30;52639;51.180;20.460;2023-02-28T22:51:33;-7.98;79.81
65864;SHT30;52639;51.180;20.460;2023-02-28T22:55:36;-7.91;80.68
65864;SHT30;52639;51.180;20.460;2023-02-28T22:59:39;-7.88;80.28
65864;SHT30;52639;51.180;20.460;2023-02-28T23:03:42;-8.11;79.91
65864;SHT30;52639;51.180;20.460;2023-02-28T23:07:46;-8.20;79.98
65864;SHT30;52639;51.180;20.460;2023-02-28T23:11:50;-8.14;80.93
65864;SHT30;52639;51.180;20.460;2023-02-28T23:15:53;-7.91;80.38
65864;SHT30;52639;51.180;20.460;2023-02-28T23:19:56;-7.90;80.04
65864;SHT30;52639;51.180;20.460;2023-02-28T23:24:01;-8.14;79.46
65864;SHT30;52639;51.180;20.460;2023-02-28T23:28:06;-8.26;80.34
65864;SHT30;52639;51.180;20.460;2023-02-28T23:32:10;-8.01;80.80
65864;SHT30;52639;51.180;20.460;2023-02-28T23:36:14;-7.88;81.14
65864;SHT30;52639;51.180;20.460;2023-02-28T23:40:18;-7.93;80.58
65864;SHT30;52639;51.180;20.460;2023-02-28T23:44:22;-8.04;81.12
65864;SHT30;52639;51.180;20.460;2023-02-28T23:48:25;-8.10;81.91
65864;SHT30;52639;51.180;20.460;2023-02-28T23:52:28;-8.15;81.25
65864;SHT30;52639;51.180;20.460;2023-02-28T23:56:33;-8.11;81.01
